sensor_id;sensor_type;location;lat;lon;timestamp;P1;durP1;ratioP1;P2;durP2;ratioP2
67248;SDS011;63247;54.300;18.592;2023-04-24T00:02:22;44.00;;;21.20;;
67248;SDS011;63247;54.300;18.592;2023-04-24T00:04:47;49.97;;;21.30;;
67248;SDS011;63247;54.300;18.592;2023-04-24T00:07:13;49.83;;;21.60;;
67248;SDS011;63247;54.300;18.592;2023-04-24T00:09:41;46.50;;;21.50;;
67248;SDS011;63247;54.300;18.592;2023-04-24T00:12:07;49.53;;;23.33;;
67248;SDS011;63247;54.300;18.592;2023-04-24T00:14:32;49.20;;;22.70;;
67248;SDS011;63247;54.300;18.592;2023-04-24T00:16:59;51.75;;;22.98;;
67248;SDS011;63247;54.300;18.592;2023-04-24T00:19:26;46.30;;;22.30;;
67248;SDS011;63247;54.300;18.592;2023-04-24T00:21:51;51.13;;;22.93;;
67248;SDS011;63247;54.300;18.592;2023-04-24T00:24:17;52.03;;;23.17;;
67248;SDS011;63247;54.300;18.592;2023-04-24T00:26:43;53.65;;;23.15;;
67248;SDS011;63247;54.300;18.592;2023-04-24T00:29:09;51.72;;;23.33;;
67248;SDS011;63247;54.300;18.592;2023-04-24T00:31:34;50.53;;;22.50;;
67248;SDS011;63247;54.300;18.592;2023-04-24T00:34:03;46.87;;;22.03;;
67248;SDS011;63247;54.300;18.592;2023-04-24T00:36:28;48.55;;;21.75;;
67248;SDS011;63247;54.300;18.592;2023-04-24T00:38:55;49.00;;;22.13;;
67248;SDS011;63247;54.300;18.592;2023-04-24T00:41:21;45.03;;;22.23;;
67248;SDS011;63247;54.300;18.592;2023-04-24T00:43:47;49.63;;;23.00;;
67248;SDS011;63247;54.300;18.592;2023-04-24T00:46:13;49.20;;;22.20;;
67248;SDS011;63247;54.300;18.592;2023-04-24T00:48:39;50.85;;;22.83;;
67248;SDS011;63247;54.300;18.592;2023-04-24T00:51:05;51.40;;;22.90;;
67248;SDS011;63247;54.300;18.592;2023-04-24T00:53:31;54.43;;;23.97;;
67248;SDS011;63247;54.300;18.592;2023-04-24T00:55:57;52.50;;;24.38;;
67248;SDS011;63247;54.300;18.592;2023-04-24T00:58:23;61.95;;;26.08;;
67248;SDS011;63247;54.300;18.592;2023-04-24T01:00:50;56.40;;;23.43;;
67248;SDS011;63247;54.300;18.592;2023-04-24T01:03:19;64.63;;;26.13;;
67248;SDS011;63247;54.300;18.592;2023-04-24T01:05:46;63.58;;;25.38;;
67248;SDS011;63247;54.300;18.592;2023-04-24T01:08:13;68.18;;;25.90;;
67248;SDS011;63247;54.300;18.592;2023-04-24T01:10:39;61.72;;;23.88;;
67248;SDS011;63247;54.300;18.592;2023-04-24T01:13:07;70.23;;;28.43;;
67248;SDS011;63247;54.300;18.592;2023-04-24T01:15:33;68.00;;;26.08;;
67248;SDS011;63247;54.300;18.592;2023-04-24T01:17:59;63.60;;;25.55;;
67248;SDS011;63247;54.300;18.592;2023-04-24T01:20:24;67.47;;;25.13;;
67248;SDS011;63247;54.300;18.592;2023-04-24T01:22:51;72.68;;;26.70;;
67248;SDS011;63247;54.300;18.592;2023-04-24T01:25:17;78.30;;;28.70;;
67248;SDS011;63247;54.300;18.592;2023-04-24T01:27:43;75.40;;;27.90;;
67248;SDS011;63247;54.300;18.592;2023-04-24T01:30:09;71.37;;;25.53;;
67248;SDS011;63247;54.300;18.592;2023-04-24T01:32:35;73.10;;;25.85;;
67248;SDS011;63247;54.300;18.592;2023-04-24T01:35:01;74.60;;;27.77;;
67248;SDS011;63247;54.300;18.592;2023-04-24T01:37:27;66.07;;;25.13;;
67248;SDS011;63247;54.300;18.592;2023-04-24T01:39:53;70.13;;;25.02;;
67248;SDS011;63247;54.300;18.592;2023-04-24T01:42:18;71.00;;;25.70;;
67248;SDS011;63247;54.300;18.592;2023-04-24T01:44:44;58.95;;;20.88;;
67248;SDS011;63247;54.300;18.592;2023-04-24T01:47:10;62.30;;;21.30;;
67248;SDS011;63247;54.300;18.592;2023-04-24T01:49:37;65.00;;;22.58;;
67248;SDS011;63247;54.300;18.592;2023-04-24T01:52:03;66.88;;;22.90;;
67248;SDS011;63247;54.300;18.592;2023-04-24T01:54:29;64.77;;;23.23;;
67248;SDS011;63247;54.300;18.592;2023-04-24T01:56:54;66.17;;;24.23;;
67248;SDS011;63247;54.300;18.592;2023-04-24T01:59:20;66.37;;;22.93;;
67248;SDS011;63247;54.300;18.592;2023-04-24T02:01:46;67.47;;;23.23;;
67248;SDS011;63247;54.300;18.592;2023-04-24T02:04:12;68.37;;;24.13;;
67248;SDS011;63247;54.300;18.592;2023-04-24T02:06:37;68.82;;;23.75;;
67248;SDS011;63247;54.300;18.592;2023-04-24T02:09:02;66.23;;;22.97;;
67248;SDS011;63247;54.300;18.592;2023-04-24T02:11:28;70.63;;;23.10;;
67248;SDS011;63247;54.300;18.592;2023-04-24T02:13:53;66.90;;;22.67;;
67248;SDS011;63247;54.300;18.592;2023-04-24T02:16:19;59.22;;;20.02;;
67248;SDS011;63247;54.300;18.592;2023-04-24T02:18:44;65.73;;;21.50;;
67248;SDS011;63247;54.300;18.592;2023-04-24T02:21:10;62.93;;;21.63;;
67248;SDS011;63247;54.300;18.592;2023-04-24T02:23:35;65.10;;;21.43;;
67248;SDS011;63247;54.300;18.592;2023-04-24T02:26:01;60.10;;;20.75;;
67248;SDS011;63247;54.300;18.592;2023-04-24T02:28:27;59.77;;;21.07;;
67248;SDS011;63247;54.300;18.592;2023-04-24T02:30:52;59.47;;;20.92;;
67248;SDS011;63247;54.300;18.592;2023-04-24T02:33:18;58.83;;;20.20;;
67248;SDS011;63247;54.300;18.592;2023-04-24T02:35:43;56.43;;;20.03;;
67248;SDS011;63247;54.300;18.592;2023-04-24T02:38:08;63.17;;;19.60;;
67248;SDS011;63247;54.300;18.592;2023-04-24T02:40:34;55.20;;;19.43;;
67248;SDS011;63247;54.300;18.592;2023-04-24T02:42:59;54.38;;;19.95;;
67248;SDS011;63247;54.300;18.592;2023-04-24T02:45:25;58.07;;;20.70;;
67248;SDS011;63247;54.300;18.592;2023-04-24T02:47:50;60.77;;;20.63;;
67248;SDS011;63247;54.300;18.592;2023-04-24T02:50:16;55.97;;;19.53;;
67248;SDS011;63247;54.300;18.592;2023-04-24T02:52:41;54.23;;;19.60;;
67248;SDS011;63247;54.300;18.592;2023-04-24T02:55:06;55.30;;;19.57;;
67248;SDS011;63247;54.300;18.592;2023-04-24T02:57:33;55.22;;;19.63;;
67248;SDS011;63247;54.300;18.592;2023-04-24T02:59:58;56.10;;;20.33;;
67248;SDS011;63247;54.300;18.592;2023-04-24T03:02:24;54.60;;;20.17;;
67248;SDS011;63247;54.300;18.592;2023-04-24T03:04:50;60.80;;;21.42;;
67248;SDS011;63247;54.300;18.592;2023-04-24T03:07:15;59.83;;;20.98;;
67248;SDS011;63247;54.300;18.592;2023-04-24T03:09:41;62.00;;;20.10;;
67248;SDS011;63247;54.300;18.592;2023-04-24T03:12:06;59.03;;;20.37;;
67248;SDS011;63247;54.300;18.592;2023-04-24T03:14:32;55.38;;;20.60;;
67248;SDS011;63247;54.300;18.592;2023-04-24T03:16:57;51.83;;;19.15;;
67248;SDS011;63247;54.300;18.592;2023-04-24T03:19:23;51.97;;;19.27;;
67248;SDS011;63247;54.300;18.592;2023-04-24T03:21:48;49.47;;;18.45;;
67248;SDS011;63247;54.300;18.592;2023-04-24T03:24:14;50.95;;;18.90;;
67248;SDS011;63247;54.300;18.592;2023-04-24T03:26:39;49.43;;;19.07;;
67248;SDS011;63247;54.300;18.592;2023-04-24T03:29:05;50.03;;;18.23;;
67248;SDS011;63247;54.300;18.592;2023-04-24T03:31:30;47.35;;;17.50;;
67248;SDS011;63247;54.300;18.592;2023-04-24T03:33:56;51.97;;;18.43;;
67248;SDS011;63247;54.300;18.592;2023-04-24T03:36:21;48.97;;;18.03;;
67248;SDS011;63247;54.300;18.592;2023-04-24T03:38:46;47.10;;;17.50;;
67248;SDS011;63247;54.300;18.592;2023-04-24T03:41:12;51.83;;;17.83;;
67248;SDS011;63247;54.300;18.592;2023-04-24T03:43:37;48.10;;;17.33;;
67248;SDS011;63247;54.300;18.592;2023-04-24T03:46:03;45.45;;;16.48;;
67248;SDS011;63247;54.300;18.592;2023-04-24T03:48:29;42.00;;;15.45;;
67248;SDS011;63247;54.300;18.592;2023-04-24T03:50:54;38.30;;;15.87;;
67248;SDS011;63247;54.300;18.592;2023-04-24T03:53:20;47.63;;;16.70;;
67248;SDS011;63247;54.300;18.592;2023-04-24T03:55:45;45.22;;;17.02;;
67248;SDS011;63247;54.300;18.592;2023-04-24T03:58:11;42.10;;;15.95;;
67248;SDS011;63247;54.300;18.592;2023-04-24T04:00:38;43.22;;;16.02;;
67248;SDS011;63247;54.300;18.592;2023-04-24T04:03:05;48.83;;;17.25;;
67248;SDS011;63247;54.300;18.592;2023-04-24T04:05:30;46.43;;;17.53;;
67248;SDS011;63247;54.300;18.592;2023-04-24T04:07:56;48.87;;;17.83;;
67248;SDS011;63247;54.300;18.592;2023-04-24T04:10:21;49.38;;;17.40;;
67248;SDS011;63247;54.300;18.592;2023-04-24T04:12:47;58.30;;;18.60;;
67248;SDS011;63247;54.300;18.592;2023-04-24T04:15:12;52.73;;;18.10;;
67248;SDS011;63247;54.300;18.592;2023-04-24T04:17:38;57.33;;;17.70;;
67248;SDS011;63247;54.300;18.592;2023-04-24T04:20:03;56.70;;;18.35;;
67248;SDS011;63247;54.300;18.592;2023-04-24T04:22:34;53.30;;;17.43;;
67248;SDS011;63247;54.300;18.592;2023-04-24T04:25:00;58.92;;;18.75;;
67248;SDS011;63247;54.300;18.592;2023-04-24T04:27:26;56.33;;;17.60;;
67248;SDS011;63247;54.300;18.592;2023-04-24T04:29:51;52.50;;;17.40;;
67248;SDS011;63247;54.300;18.592;2023-04-24T04:32:17;54.07;;;17.70;;
67248;SDS011;63247;54.300;18.592;2023-04-24T04:34:42;47.20;;;16.98;;
67248;SDS011;63247;54.300;18.592;2023-04-24T04:37:10;49.40;;;17.35;;
67248;SDS011;63247;54.300;18.592;2023-04-24T04:39:37;54.25;;;17.33;;
67248;SDS011;63247;54.300;18.592;2023-04-24T04:42:03;53.13;;;17.40;;
67248;SDS011;63247;54.300;18.592;2023-04-24T04:44:28;48.08;;;16.50;;
67248;SDS011;63247;54.300;18.592;2023-04-24T04:46:55;53.42;;;16.27;;
67248;SDS011;63247;54.300;18.592;2023-04-24T04:49:21;52.97;;;17.80;;
67248;SDS011;63247;54.300;18.592;2023-04-24T04:51:48;47.57;;;16.90;;
67248;SDS011;63247;54.300;18.592;2023-04-24T04:54:14;47.55;;;17.38;;
67248;SDS011;63247;54.300;18.592;2023-04-24T04:56:40;46.17;;;16.90;;
67248;SDS011;63247;54.300;18.592;2023-04-24T04:59:06;41.80;;;17.07;;
67248;SDS011;63247;54.300;18.592;2023-04-24T05:01:31;48.37;;;17.17;;
67248;SDS011;63247;54.300;18.592;2023-04-24T05:03:57;40.10;;;15.97;;
67248;SDS011;63247;54.300;18.592;2023-04-24T05:06:22;39.97;;;15.27;;
67248;SDS011;63247;54.300;18.592;2023-04-24T05:08:47;38.28;;;14.68;;
67248;SDS011;63247;54.300;18.592;2023-04-24T05:11:13;35.83;;;15.00;;
67248;SDS011;63247;54.300;18.592;2023-04-24T05:13:39;40.08;;;16.10;;
67248;SDS011;63247;54.300;18.592;2023-04-24T05:16:05;33.72;;;14.50;;
67248;SDS011;63247;54.300;18.592;2023-04-24T05:18:31;30.60;;;12.80;;
67248;SDS011;63247;54.300;18.592;2023-04-24T05:20:57;34.55;;;13.73;;
67248;SDS011;63247;54.300;18.592;2023-04-24T05:23:22;30.37;;;13.17;;
67248;SDS011;63247;54.300;18.592;2023-04-24T05:25:47;34.13;;;14.30;;
67248;SDS011;63247;54.300;18.592;2023-04-24T05:28:13;37.83;;;14.47;;
67248;SDS011;63247;54.300;18.592;2023-04-24T05:30:38;32.63;;;13.40;;
67248;SDS011;63247;54.300;18.592;2023-04-24T05:33:04;31.57;;;12.70;;
67248;SDS011;63247;54.300;18.592;2023-04-24T05:35:30;32.23;;;14.30;;
67248;SDS011;63247;54.300;18.592;2023-04-24T05:37:55;34.15;;;14.15;;
67248;SDS011;63247;54.300;18.592;2023-04-24T05:40:20;36.83;;;13.83;;
67248;SDS011;63247;54.300;18.592;2023-04-24T05:42:46;33.30;;;13.80;;
67248;SDS011;63247;54.300;18.592;2023-04-24T05:45:11;36.00;;;13.67;;
67248;SDS011;63247;54.300;18.592;2023-04-24T05:47:41;32.08;;;13.40;;
67248;SDS011;63247;54.300;18.592;2023-04-24T05:50:08;31.13;;;13.55;;
67248;SDS011;63247;54.300;18.592;2023-04-24T05:52:34;30.02;;;12.43;;
67248;SDS011;63247;54.300;18.592;2023-04-24T05:55:00;36.60;;;12.07;;
67248;SDS011;63247;54.300;18.592;2023-04-24T05:57:25;31.50;;;11.73;;
67248;SDS011;63247;54.300;18.592;2023-04-24T05:59:51;27.80;;;11.82;;
67248;SDS011;63247;54.300;18.592;2023-04-24T06:02:16;29.80;;;12.33;;
67248;SDS011;63247;54.300;18.592;2023-04-24T06:04:42;31.10;;;12.37;;
67248;SDS011;63247;54.300;18.592;2023-04-24T06:07:09;30.60;;;12.23;;
67248;SDS011;63247;54.300;18.592;2023-04-24T06:09:35;28.27;;;12.70;;
67248;SDS011;63247;54.300;18.592;2023-04-24T06:12:01;29.48;;;12.07;;
67248;SDS011;63247;54.300;18.592;2023-04-24T06:14:27;28.77;;;11.87;;
67248;SDS011;63247;54.300;18.592;2023-04-24T06:16:53;28.98;;;12.07;;
67248;SDS011;63247;54.300;18.592;2023-04-24T06:19:18;29.20;;;12.20;;
67248;SDS011;63247;54.300;18.592;2023-04-24T06:21:43;29.40;;;11.83;;
67248;SDS011;63247;54.300;18.592;2023-04-24T06:24:09;27.40;;;11.80;;
67248;SDS011;63247;54.300;18.592;2023-04-24T06:26:35;30.85;;;12.07;;
67248;SDS011;63247;54.300;18.592;2023-04-24T06:29:00;28.80;;;12.47;;
67248;SDS011;63247;54.300;18.592;2023-04-24T06:31:25;33.20;;;12.50;;
67248;SDS011;63247;54.300;18.592;2023-04-24T06:33:51;27.88;;;12.35;;
67248;SDS011;63247;54.300;18.592;2023-04-24T06:36:16;28.15;;;13.15;;
67248;SDS011;63247;54.300;18.592;2023-04-24T06:38:42;30.20;;;12.57;;
67248;SDS011;63247;54.300;18.592;2023-04-24T06:41:07;31.87;;;12.53;;
67248;SDS011;63247;54.300;18.592;2023-04-24T06:43:33;28.63;;;12.30;;
67248;SDS011;63247;54.300;18.592;2023-04-24T06:45:58;29.80;;;12.80;;
67248;SDS011;63247;54.300;18.592;2023-04-24T06:48:25;32.77;;;12.97;;
67248;SDS011;63247;54.300;18.592;2023-04-24T06:50:50;153.25;;;69.93;;
67248;SDS011;63247;54.300;18.592;2023-04-24T06:53:16;54.67;;;25.23;;
67248;SDS011;63247;54.300;18.592;2023-04-24T06:55:43;36.95;;;15.40;;
67248;SDS011;63247;54.300;18.592;2023-04-24T06:58:11;32.63;;;13.02;;
67248;SDS011;63247;54.300;18.592;2023-04-24T07:00:36;34.40;;;14.50;;
67248;SDS011;63247;54.300;18.592;2023-04-24T07:03:02;33.47;;;13.75;;
67248;SDS011;63247;54.300;18.592;2023-04-24T07:05:28;37.93;;;12.93;;
67248;SDS011;63247;54.300;18.592;2023-04-24T07:07:54;33.70;;;14.23;;
67248;SDS011;63247;54.300;18.592;2023-04-24T07:10:19;35.77;;;13.50;;
67248;SDS011;63247;54.300;18.592;2023-04-24T07:12:45;33.33;;;13.97;;
67248;SDS011;63247;54.300;18.592;2023-04-24T07:15:11;34.88;;;14.00;;
67248;SDS011;63247;54.300;18.592;2023-04-24T07:17:36;30.77;;;13.03;;
67248;SDS011;63247;54.300;18.592;2023-04-24T07:20:03;30.52;;;13.60;;
67248;SDS011;63247;54.300;18.592;2023-04-24T07:22:29;37.17;;;14.45;;
67248;SDS011;63247;54.300;18.592;2023-04-24T07:24:55;31.03;;;12.83;;
67248;SDS011;63247;54.300;18.592;2023-04-24T07:27:20;32.88;;;13.48;;
67248;SDS011;63247;54.300;18.592;2023-04-24T07:29:46;33.95;;;14.23;;
67248;SDS011;63247;54.300;18.592;2023-04-24T07:32:11;28.33;;;12.53;;
67248;SDS011;63247;54.300;18.592;2023-04-24T07:34:36;30.83;;;13.50;;
67248;SDS011;63247;54.300;18.592;2023-04-24T07:37:02;30.80;;;13.80;;
67248;SDS011;63247;54.300;18.592;2023-04-24T07:39:28;30.05;;;12.75;;
67248;SDS011;63247;54.300;18.592;2023-04-24T07:41:54;28.65;;;11.77;;
67248;SDS011;63247;54.300;18.592;2023-04-24T07:44:19;29.90;;;12.43;;
67248;SDS011;63247;54.300;18.592;2023-04-24T07:46:45;24.40;;;10.73;;
67248;SDS011;63247;54.300;18.592;2023-04-24T07:49:10;26.07;;;11.77;;
67248;SDS011;63247;54.300;18.592;2023-04-24T07:51:36;26.60;;;11.90;;
67248;SDS011;63247;54.300;18.592;2023-04-24T07:54:03;26.30;;;12.10;;
67248;SDS011;63247;54.300;18.592;2023-04-24T07:56:32;27.75;;;11.55;;
67248;SDS011;63247;54.300;18.592;2023-04-24T07:58:58;23.38;;;9.65;;
67248;SDS011;63247;54.300;18.592;2023-04-24T08:01:23;26.70;;;11.67;;
67248;SDS011;63247;54.300;18.592;2023-04-24T08:03:49;27.97;;;11.20;;
67248;SDS011;63247;54.300;18.592;2023-04-24T08:06:14;27.75;;;12.43;;
67248;SDS011;63247;54.300;18.592;2023-04-24T08:08:40;24.53;;;11.70;;
67248;SDS011;63247;54.300;18.592;2023-04-24T08:11:05;26.90;;;11.20;;
67248;SDS011;63247;54.300;18.592;2023-04-24T08:13:31;23.67;;;11.30;;
67248;SDS011;63247;54.300;18.592;2023-04-24T08:15:56;25.75;;;12.02;;
67248;SDS011;63247;54.300;18.592;2023-04-24T08:18:22;28.13;;;12.27;;
67248;SDS011;63247;54.300;18.592;2023-04-24T08:20:47;24.80;;;11.60;;
67248;SDS011;63247;54.300;18.592;2023-04-24T08:23:13;26.95;;;11.82;;
67248;SDS011;63247;54.300;18.592;2023-04-24T08:25:38;23.63;;;11.17;;
67248;SDS011;63247;54.300;18.592;2023-04-24T08:28:05;23.87;;;11.63;;
67248;SDS011;63247;54.300;18.592;2023-04-24T08:30:31;25.23;;;11.90;;
67248;SDS011;63247;54.300;18.592;2023-04-24T08:32:56;25.65;;;11.57;;
67248;SDS011;63247;54.300;18.592;2023-04-24T08:35:22;22.23;;;11.33;;
67248;SDS011;63247;54.300;18.592;2023-04-24T08:37:48;25.13;;;11.68;;
67248;SDS011;63247;54.300;18.592;2023-04-24T08:40:14;21.37;;;11.10;;
67248;SDS011;63247;54.300;18.592;2023-04-24T08:42:44;21.75;;;11.32;;
67248;SDS011;63247;54.300;18.592;2023-04-24T08:45:11;23.77;;;12.50;;
67248;SDS011;63247;54.300;18.592;2023-04-24T08:47:38;22.70;;;12.87;;
67248;SDS011;63247;54.300;18.592;2023-04-24T08:50:04;23.10;;;12.88;;
67248;SDS011;63247;54.300;18.592;2023-04-24T08:52:32;25.98;;;12.48;;
67248;SDS011;63247;54.300;18.592;2023-04-24T08:54:58;26.02;;;12.85;;
67248;SDS011;63247;54.300;18.592;2023-04-24T08:57:25;26.30;;;14.10;;
67248;SDS011;63247;54.300;18.592;2023-04-24T08:59:51;24.93;;;13.87;;
67248;SDS011;63247;54.300;18.592;2023-04-24T09:02:18;25.92;;;13.68;;
67248;SDS011;63247;54.300;18.592;2023-04-24T09:04:44;27.65;;;13.73;;
67248;SDS011;63247;54.300;18.592;2023-04-24T09:07:12;31.50;;;14.95;;
67248;SDS011;63247;54.300;18.592;2023-04-24T09:09:39;28.88;;;14.18;;
67248;SDS011;63247;54.300;18.592;2023-04-24T09:12:06;28.97;;;14.83;;
67248;SDS011;63247;54.300;18.592;2023-04-24T09:14:34;28.55;;;13.90;;
67248;SDS011;63247;54.300;18.592;2023-04-24T09:17:01;29.85;;;15.10;;
67248;SDS011;63247;54.300;18.592;2023-04-24T09:19:27;33.43;;;14.80;;
67248;SDS011;63247;54.300;18.592;2023-04-24T09:21:52;32.03;;;14.77;;
67248;SDS011;63247;54.300;18.592;2023-04-24T09:24:19;33.70;;;17.70;;
67248;SDS011;63247;54.300;18.592;2023-04-24T09:26:47;31.33;;;15.93;;
67248;SDS011;63247;54.300;18.592;2023-04-24T09:29:15;30.73;;;14.83;;
67248;SDS011;63247;54.300;18.592;2023-04-24T09:31:41;32.28;;;16.63;;
67248;SDS011;63247;54.300;18.592;2023-04-24T09:34:07;33.75;;;16.65;;
67248;SDS011;63247;54.300;18.592;2023-04-24T09:36:36;39.20;;;20.43;;
67248;SDS011;63247;54.300;18.592;2023-04-24T09:41:51;34.95;;;18.48;;
67248;SDS011;63247;54.300;18.592;2023-04-24T09:46:54;37.85;;;16.75;;
67248;SDS011;63247;54.300;18.592;2023-04-24T09:49:27;36.42;;;17.75;;
67248;SDS011;63247;54.300;18.592;2023-04-24T09:52:06;35.45;;;17.52;;
67248;SDS011;63247;54.300;18.592;2023-04-24T09:54:33;35.22;;;17.70;;
67248;SDS011;63247;54.300;18.592;2023-04-24T09:56:58;34.77;;;17.20;;
67248;SDS011;63247;54.300;18.592;2023-04-24T09:59:25;36.00;;;16.02;;
67248;SDS011;63247;54.300;18.592;2023-04-24T10:01:51;31.27;;;16.33;;
67248;SDS011;63247;54.300;18.592;2023-04-24T10:04:23;33.33;;;14.88;;
67248;SDS011;63247;54.300;18.592;2023-04-24T10:06:54;30.88;;;15.50;;
67248;SDS011;63247;54.300;18.592;2023-04-24T10:09:21;33.70;;;13.50;;
67248;SDS011;63247;54.300;18.592;2023-04-24T10:11:52;28.87;;;14.13;;
67248;SDS011;63247;54.300;18.592;2023-04-24T10:14:20;31.25;;;17.15;;
67248;SDS011;63247;54.300;18.592;2023-04-24T10:16:47;28.17;;;16.17;;
67248;SDS011;63247;54.300;18.592;2023-04-24T10:19:14;27.23;;;14.13;;
67248;SDS011;63247;54.300;18.592;2023-04-24T10:21:41;29.50;;;16.17;;
67248;SDS011;63247;54.300;18.592;2023-04-24T10:24:11;28.10;;;15.83;;
67248;SDS011;63247;54.300;18.592;2023-04-24T10:26:40;29.85;;;15.70;;
67248;SDS011;63247;54.300;18.592;2023-04-24T10:29:06;27.55;;;15.85;;
67248;SDS011;63247;54.300;18.592;2023-04-24T10:31:37;25.40;;;13.52;;
67248;SDS011;63247;54.300;18.592;2023-04-24T10:34:04;26.23;;;13.68;;
67248;SDS011;63247;54.300;18.592;2023-04-24T10:36:33;27.77;;;13.63;;
67248;SDS011;63247;54.300;18.592;2023-04-24T10:39:01;28.85;;;14.20;;
67248;SDS011;63247;54.300;18.592;2023-04-24T10:41:28;26.30;;;13.68;;
67248;SDS011;63247;54.300;18.592;2023-04-24T10:44:14;25.98;;;14.68;;
67248;SDS011;63247;54.300;18.592;2023-04-24T10:46:44;25.70;;;14.82;;
67248;SDS011;63247;54.300;18.592;2023-04-24T10:49:11;29.27;;;16.13;;
67248;SDS011;63247;54.300;18.592;2023-04-24T10:52:10;26.60;;;14.18;;
67248;SDS011;63247;54.300;18.592;2023-04-24T10:59:51;27.80;;;14.98;;
67248;SDS011;63247;54.300;18.592;2023-04-24T11:02:35;29.85;;;14.57;;
67248;SDS011;63247;54.300;18.592;2023-04-24T11:05:03;27.73;;;14.38;;
67248;SDS011;63247;54.300;18.592;2023-04-24T11:07:28;25.85;;;11.82;;
67248;SDS011;63247;54.300;18.592;2023-04-24T11:10:00;30.77;;;15.88;;
67248;SDS011;63247;54.300;18.592;2023-04-24T11:12:26;30.00;;;15.57;;
67248;SDS011;63247;54.300;18.592;2023-04-24T11:17:37;29.27;;;15.85;;
67248;SDS011;63247;54.300;18.592;2023-04-24T11:20:08;26.90;;;15.82;;
67248;SDS011;63247;54.300;18.592;2023-04-24T11:22:36;28.60;;;15.20;;
67248;SDS011;63247;54.300;18.592;2023-04-24T11:25:04;27.83;;;15.63;;
67248;SDS011;63247;54.300;18.592;2023-04-24T11:27:33;25.52;;;14.10;;
67248;SDS011;63247;54.300;18.592;2023-04-24T11:30:04;23.33;;;12.95;;
67248;SDS011;63247;54.300;18.592;2023-04-24T11:35:23;23.15;;;12.93;;
67248;SDS011;63247;54.300;18.592;2023-04-24T11:37:50;21.80;;;11.80;;
67248;SDS011;63247;54.300;18.592;2023-04-24T11:40:18;13.30;;;6.88;;
67248;SDS011;63247;54.300;18.592;2023-04-24T11:42:54;12.48;;;7.68;;
67248;SDS011;63247;54.300;18.592;2023-04-24T11:45:25;12.60;;;7.20;;
67248;SDS011;63247;54.300;18.592;2023-04-24T11:47:52;11.80;;;7.20;;
67248;SDS011;63247;54.300;18.592;2023-04-24T11:50:20;15.13;;;7.20;;
67248;SDS011;63247;54.300;18.592;2023-04-24T11:52:48;10.77;;;6.15;;
67248;SDS011;63247;54.300;18.592;2023-04-24T11:57:42;10.90;;;5.23;;
67248;SDS011;63247;54.300;18.592;2023-04-24T12:00:14;12.15;;;5.93;;
67248;SDS011;63247;54.300;18.592;2023-04-24T12:02:42;9.37;;;5.97;;
67248;SDS011;63247;54.300;18.592;2023-04-24T12:05:07;10.35;;;5.90;;
67248;SDS011;63247;54.300;18.592;2023-04-24T12:07:39;9.07;;;5.32;;
67248;SDS011;63247;54.300;18.592;2023-04-24T12:10:07;9.65;;;5.82;;
67248;SDS011;63247;54.300;18.592;2023-04-24T12:12:34;9.25;;;5.35;;
67248;SDS011;63247;54.300;18.592;2023-04-24T12:15:00;11.68;;;5.47;;
67248;SDS011;63247;54.300;18.592;2023-04-24T12:19:57;11.32;;;6.00;;
67248;SDS011;63247;54.300;18.592;2023-04-24T12:22:24;11.55;;;5.72;;
67248;SDS011;63247;54.300;18.592;2023-04-24T12:25:00;10.33;;;4.87;;
67248;SDS011;63247;54.300;18.592;2023-04-24T12:27:33;8.60;;;5.45;;
67248;SDS011;63247;54.300;18.592;2023-04-24T12:29:59;7.97;;;4.60;;
67248;SDS011;63247;54.300;18.592;2023-04-24T12:32:26;10.35;;;5.43;;
67248;SDS011;63247;54.300;18.592;2023-04-24T12:34:52;16.97;;;4.87;;
67248;SDS011;63247;54.300;18.592;2023-04-24T12:37:19;11.20;;;4.80;;
67248;SDS011;63247;54.300;18.592;2023-04-24T12:40:30;8.45;;;5.22;;
67248;SDS011;63247;54.300;18.592;2023-04-24T12:42:34;7.38;;;4.90;;
67248;SDS011;63247;54.300;18.592;2023-04-24T12:45:02;8.47;;;4.40;;
67248;SDS011;63247;54.300;18.592;2023-04-24T12:47:30;10.60;;;4.90;;
67248;SDS011;63247;54.300;18.592;2023-04-24T12:49:56;8.25;;;5.32;;
67248;SDS011;63247;54.300;18.592;2023-04-24T12:52:22;7.95;;;4.40;;
67248;SDS011;63247;54.300;18.592;2023-04-24T12:54:54;9.45;;;4.95;;
67248;SDS011;63247;54.300;18.592;2023-04-24T12:57:22;7.63;;;4.75;;
67248;SDS011;63247;54.300;18.592;2023-04-24T12:59:49;10.60;;;5.13;;
67248;SDS011;63247;54.300;18.592;2023-04-24T13:02:14;7.40;;;4.33;;
67248;SDS011;63247;54.300;18.592;2023-04-24T13:04:43;7.35;;;4.78;;
67248;SDS011;63247;54.300;18.592;2023-04-24T13:07:09;8.75;;;4.90;;
67248;SDS011;63247;54.300;18.592;2023-04-24T13:09:35;10.27;;;4.60;;
67248;SDS011;63247;54.300;18.592;2023-04-24T13:12:00;7.20;;;4.37;;
67248;SDS011;63247;54.300;18.592;2023-04-24T13:14:26;9.98;;;4.88;;
67248;SDS011;63247;54.300;18.592;2023-04-24T13:16:52;7.63;;;4.60;;
67248;SDS011;63247;54.300;18.592;2023-04-24T13:19:17;8.17;;;4.17;;
67248;SDS011;63247;54.300;18.592;2023-04-24T13:21:43;10.55;;;5.03;;
67248;SDS011;63247;54.300;18.592;2023-04-24T13:24:08;7.63;;;5.13;;
67248;SDS011;63247;54.300;18.592;2023-04-24T13:26:34;8.75;;;4.82;;
67248;SDS011;63247;54.300;18.592;2023-04-24T13:29:00;10.13;;;5.87;;
67248;SDS011;63247;54.300;18.592;2023-04-24T13:31:25;8.07;;;3.90;;
67248;SDS011;63247;54.300;18.592;2023-04-24T13:33:51;6.97;;;4.30;;
67248;SDS011;63247;54.300;18.592;2023-04-24T13:36:16;8.20;;;4.50;;
67248;SDS011;63247;54.300;18.592;2023-04-24T13:38:42;9.52;;;4.82;;
67248;SDS011;63247;54.300;18.592;2023-04-24T13:41:09;9.52;;;4.75;;
67248;SDS011;63247;54.300;18.592;2023-04-24T13:43:35;8.18;;;4.50;;
67248;SDS011;63247;54.300;18.592;2023-04-24T13:46:00;9.00;;;5.03;;
67248;SDS011;63247;54.300;18.592;2023-04-24T13:48:27;9.70;;;4.57;;
67248;SDS011;63247;54.300;18.592;2023-04-24T13:50:53;7.60;;;4.63;;
67248;SDS011;63247;54.300;18.592;2023-04-24T13:53:19;8.67;;;4.60;;
67248;SDS011;63247;54.300;18.592;2023-04-24T13:55:44;8.88;;;5.13;;
67248;SDS011;63247;54.300;18.592;2023-04-24T13:58:10;6.80;;;4.17;;
67248;SDS011;63247;54.300;18.592;2023-04-24T14:00:35;8.23;;;4.63;;
67248;SDS011;63247;54.300;18.592;2023-04-24T14:03:01;8.90;;;5.20;;
67248;SDS011;63247;54.300;18.592;2023-04-24T14:05:26;8.32;;;4.75;;
67248;SDS011;63247;54.300;18.592;2023-04-24T14:07:51;9.35;;;5.38;;
67248;SDS011;63247;54.300;18.592;2023-04-24T14:10:17;8.63;;;5.03;;
67248;SDS011;63247;54.300;18.592;2023-04-24T14:12:42;9.47;;;4.90;;
67248;SDS011;63247;54.300;18.592;2023-04-24T14:15:08;10.00;;;4.70;;
67248;SDS011;63247;54.300;18.592;2023-04-24T14:17:34;10.85;;;5.63;;
67248;SDS011;63247;54.300;18.592;2023-04-24T14:19:59;9.73;;;5.20;;
67248;SDS011;63247;54.300;18.592;2023-04-24T14:22:25;13.50;;;5.60;;
67248;SDS011;63247;54.300;18.592;2023-04-24T14:24:51;13.80;;;5.73;;
67248;SDS011;63247;54.300;18.592;2023-04-24T14:27:16;24.55;;;6.97;;
67248;SDS011;63247;54.300;18.592;2023-04-24T14:29:42;33.33;;;7.53;;
67248;SDS011;63247;54.300;18.592;2023-04-24T14:32:07;39.63;;;8.20;;